Time;durP1;ratioP1;P1;durP2;ratioP2;P2;SDS_P1;SDS_P2;PMS_P1;PMS_P2;Temp;Humidity;BMP_temperature;BMP_pressure;BME280_temperature;BME280_humidity;BME280_pressure;Samples;Min_cycle;Max_cycle;Signal;HPM_P1;HPM_P2
2021/07/11 00:01:25;;;;;;;7.78;7.00;;;24.50;75.80;;;;;;4938700;29;20103;-96
2021/07/11 00:03:51;;;;;;;7.60;6.78;;;24.40;75.90;;;;;;4921339;29;20046;-96
2021/07/11 00:06:17;;;;;;;7.80;7.00;;;24.40;76.10;;;;;;4920899;29;20087;-96
2021/07/11 00:08:43;;;;;;;7.68;6.95;;;24.30;76.30;;;;;;4920621;29;20028;-96
2021/07/11 00:11:08;;;;;;;8.35;7.50;;;24.30;76.70;;;;;;4920305;29;20114;-96
2021/07/11 00:13:34;;;;;;;12.27;7.93;;;24.20;77.50;;;;;;4920831;29;20028;-96
2021/07/11 00:16:00;;;;;;;8.82;7.18;;;24.20;78.10;;;;;;4920438;29;20035;-96
2021/07/11 00:18:26;;;;;;;8.65;7.70;;;24.10;78.40;;;;;;4921102;29;20483;-96
2021/07/11 00:20:51;;;;;;;8.68;7.78;;;24.10;78.80;;;;;;4925714;29;20039;-95
2021/07/11 00:23:17;;;;;;;8.90;7.82;;;24.10;79.20;;;;;;4942355;29;20088;-95
2021/07/11 00:25:43;;;;;;;9.60;7.60;;;24.00;79.20;;;;;;4924090;29;20462;-95
2021/07/11 00:28:09;;;;;;;9.20;8.18;;;24.00;79.40;;;;;;4934438;29;20031;-94
2021/07/11 00:30:34;;;;;;;9.45;8.45;;;24.00;80.20;;;;;;4937299;29;20252;-94
2021/07/11 00:33:00;;;;;;;8.77;7.88;;;23.90;80.90;;;;;;4939080;29;20032;-94
2021/07/11 00:35:26;;;;;;;8.32;7.45;;;23.90;80.90;;;;;;4940594;29;20008;-94
2021/07/11 00:37:51;;;;;;;7.72;6.95;;;23.90;81.00;;;;;;4959631;29;20027;-94
2021/07/11 00:40:18;;;;;;;7.72;6.95;;;23.80;80.90;;;;;;4944531;29;20028;-95
2021/07/11 00:42:44;;;;;;;8.48;7.57;;;23.80;80.90;;;;;;4942159;29;20380;-94
2021/07/11 00:45:11;;;;;;;8.90;7.68;;;23.80;81.30;;;;;;4925447;29;20085;-96
2021/07/11 00:47:38;;;;;;;9.18;7.40;;;23.80;81.50;;;;;;4924446;29;20038;-96
2021/07/11 00:50:11;;;;;;;12.45;7.53;;;23.70;81.90;;;;;;4925741;29;20054;-95
2021/07/11 00:52:39;;;;;;;8.88;7.93;;;23.70;81.90;;;;;;4923476;29;20463;-95
2021/07/11 00:55:06;;;;;;;8.70;7.80;;;23.60;81.70;;;;;;4940277;29;20132;-95
2021/07/11 00:57:32;;;;;;;8.23;7.10;;;23.60;82.20;;;;;;4923415;29;20024;-96
2021/07/11 00:59:58;;;;;;;9.15;8.25;;;23.50;82.40;;;;;;4923228;29;20360;-95
2021/07/11 01:02:53;;;;;;;9.00;7.38;;;23.50;83.10;;;;;;4923288;29;20044;-96
2021/07/11 01:05:22;;;;;;;9.40;7.68;;;23.50;83.20;;;;;;4923192;29;20467;-96
2021/07/11 01:08:09;;;;;;;8.85;7.22;;;23.50;83.20;;;;;;4923898;29;20388;-96
2021/07/11 01:10:41;;;;;;;8.30;7.30;;;23.40;83.00;;;;;;4922140;29;20043;-96
2021/07/11 01:13:13;;;;;;;8.45;7.57;;;23.40;82.90;;;;;;4923131;29;20036;-96
2021/07/11 01:15:41;;;;;;;9.30;8.32;;;23.40;83.80;;;;;;4923322;29;20024;-96
2021/07/11 01:18:08;;;;;;;8.90;8.00;;;23.30;83.90;;;;;;4922990;29;20055;-96
2021/07/11 01:20:55;;;;;;;9.40;8.40;;;23.30;83.80;;;;;;4955775;29;20091;-95
2021/07/11 01:23:47;;;;;;;8.48;7.68;;;23.30;83.90;;;;;;4960170;29;20028;-95
2021/07/11 01:26:15;;;;;;;9.23;8.10;;;23.30;84.50;;;;;;4928953;29;20043;-95
2021/07/11 01:28:41;;;;;;;8.88;7.95;;;23.30;84.50;;;;;;4923204;29;20035;-96
2021/07/11 01:31:08;;;;;;;12.32;9.05;;;23.20;84.60;;;;;;4922800;29;20047;-96
2021/07/11 01:33:38;;;;;;;10.50;9.45;;;23.20;85.80;;;;;;4923064;29;20070;-96
2021/07/11 01:36:05;;;;;;;11.32;9.25;;;23.20;86.20;;;;;;4923450;29;20051;-96
2021/07/11 01:38:32;;;;;;;9.38;8.43;;;23.10;86.10;;;;;;4922773;29;20070;-96
2021/07/11 01:40:58;;;;;;;11.32;8.38;;;23.10;86.50;;;;;;4922743;29;20055;-95
2021/07/11 01:43:25;;;;;;;9.52;7.97;;;23.10;86.20;;;;;;4939129;29;20032;-96
2021/07/11 01:45:53;;;;;;;10.40;9.40;;;23.10;86.00;;;;;;4926953;29;20058;-96
2021/07/11 01:48:20;;;;;;;10.85;9.70;;;23.10;87.00;;;;;;4947802;29;20028;-95
2021/07/11 01:50:51;;;;;;;13.32;9.77;;;23.10;87.40;;;;;;4934730;29;20465;-95
2021/07/11 01:53:21;;;;;;;10.32;9.20;;;23.10;88.50;;;;;;4935492;29;20067;-95
2021/07/11 01:55:50;;;;;;;10.23;9.25;;;23.00;88.00;;;;;;4923925;29;20087;-95
2021/07/11 01:58:17;;;;;;;10.65;9.65;;;23.00;88.30;;;;;;4922896;29;20479;-96
2021/07/11 02:00:43;;;;;;;10.48;9.38;;;23.00;88.50;;;;;;4922776;29;20062;-95
2021/07/11 02:03:21;;;;;;;10.88;9.77;;;23.00;88.60;;;;;;4923158;29;20059;-96
2021/07/11 02:05:47;;;;;;;10.52;9.52;;;23.00;89.60;;;;;;4922774;29;20036;-95
2021/07/11 02:08:14;;;;;;;10.23;8.93;;;23.00;89.20;;;;;;4922638;29;20390;-96
2021/07/11 02:10:43;;;;;;;10.57;9.55;;;23.00;89.60;;;;;;4939047;29;20034;-96
2021/07/11 02:13:20;;;;;;;12.73;8.88;;;23.00;89.70;;;;;;4921952;29;20038;-96
2021/07/11 02:15:49;;;;;;;10.32;9.20;;;23.00;90.30;;;;;;4922482;29;20479;-95
2021/07/11 02:18:18;;;;;;;11.00;8.93;;;23.00;89.50;;;;;;4922147;29;20060;-96
2021/07/11 02:20:49;;;;;;;11.00;9.88;;;22.90;89.50;;;;;;4923322;29;20035;-93
2021/07/11 02:23:17;;;;;;;10.82;9.40;;;23.00;90.10;;;;;;4940233;29;20068;-94
2021/07/11 02:25:46;;;;;;;13.02;9.10;;;22.90;90.00;;;;;;4938608;29;20035;-94
2021/07/11 02:28:13;;;;;;;9.27;8.10;;;22.90;89.90;;;;;;4931938;29;20039;-94
2021/07/11 02:30:41;;;;;;;10.00;8.88;;;22.90;89.40;;;;;;4941894;29;20042;-95
2021/07/11 02:33:12;;;;;;;10.45;9.40;;;22.90;89.30;;;;;;4944966;29;20023;-96
2021/07/11 02:35:42;;;;;;;9.43;8.43;;;22.90;88.90;;;;;;4944375;28;20019;-93
2021/07/11 02:38:08;;;;;;;14.25;8.48;;;23.00;88.40;;;;;;4961310;28;20039;-94
2021/07/11 02:40:35;;;;;;;9.02;8.13;;;23.00;87.70;;;;;;4945087;28;20020;-96
2021/07/11 02:43:08;;;;;;;10.82;8.15;;;23.00;87.00;;;;;;4954807;29;20505;-95
2021/07/11 02:45:35;;;;;;;9.48;8.18;;;23.00;86.70;;;;;;4935982;29;20063;-96
2021/07/11 02:48:02;;;;;;;8.38;7.50;;;23.10;86.40;;;;;;4933737;29;20059;-95
2021/07/11 02:50:29;;;;;;;8.65;7.68;;;23.10;86.10;;;;;;4937418;29;20031;-96
2021/07/11 02:52:56;;;;;;;8.32;7.63;;;23.10;85.80;;;;;;4947479;29;20047;-96
2021/07/11 02:55:31;;;;;;;8.50;7.63;;;23.20;85.40;;;;;;4927793;29;20118;-96
2021/07/11 02:58:07;;;;;;;8.00;7.20;;;23.10;85.10;;;;;;4925299;29;20100;-96
2021/07/11 03:00:33;;;;;;;7.28;6.55;;;23.20;85.20;;;;;;4939887;29;20028;-96
2021/07/11 03:03:00;;;;;;;7.47;6.78;;;23.20;84.60;;;;;;4940813;29;20030;-96
2021/07/11 03:05:26;;;;;;;7.90;7.20;;;23.30;84.40;;;;;;4923336;29;20039;-95
2021/07/11 03:07:52;;;;;;;7.20;6.53;;;23.30;83.20;;;;;;4921956;29;20056;-96
2021/07/11 03:10:19;;;;;;;7.22;6.28;;;23.40;82.70;;;;;;4924251;29;20028;-96
2021/07/11 03:12:48;;;;;;;10.05;6.97;;;23.40;82.30;;;;;;4922935;29;20040;-96
2021/07/11 03:15:14;;;;;;;7.20;6.07;;;23.50;81.70;;;;;;4923577;29;20086;-96
2021/07/11 03:17:41;;;;;;;7.68;6.82;;;23.50;80.80;;;;;;4924518;29;20067;-95
2021/07/11 03:20:08;;;;;;;7.05;6.30;;;23.60;80.10;;;;;;4931636;29;20097;-96
2021/07/11 03:22:37;;;;;;;6.35;5.68;;;23.60;79.50;;;;;;4933794;29;20036;-95
2021/07/11 03:25:08;;;;;;;6.82;6.22;;;23.80;79.00;;;;;;4929649;29;20035;-95
2021/07/11 03:27:36;;;;;;;6.13;5.53;;;23.80;78.20;;;;;;4922466;29;20082;-96
2021/07/11 03:30:12;;;;;;;6.68;5.97;;;23.90;77.80;;;;;;4942699;29;20043;-96
2021/07/11 03:32:52;;;;;;;6.03;5.43;;;24.00;76.90;;;;;;4929907;29;20028;-96
2021/07/11 03:35:21;;;;;;;6.63;5.40;;;24.10;76.10;;;;;;4946892;29;20059;-95
2021/07/11 03:37:49;;;;;;;5.90;5.18;;;24.10;75.90;;;;;;4927053;29;20463;-96
2021/07/11 03:40:22;;;;;;;5.43;4.93;;;24.20;75.40;;;;;;4944747;29;20035;-96
2021/07/11 03:42:50;;;;;;;5.87;5.27;;;24.30;74.90;;;;;;4927052;29;20028;-95
2021/07/11 03:45:16;;;;;;;6.35;4.85;;;24.40;74.70;;;;;;4925212;29;20031;-96
2021/07/11 03:48:08;;;;;;;5.78;5.10;;;24.50;74.60;;;;;;4943960;29;20034;-96
2021/07/11 03:50:37;;;;;;;5.95;5.35;;;24.50;73.90;;;;;;4902564;29;20103;-96
2021/07/11 03:53:06;;;;;;;6.35;5.63;;;24.60;73.10;;;;;;4940476;29;20529;-96
2021/07/11 03:55:34;;;;;;;5.60;5.10;;;24.60;72.80;;;;;;4923448;29;20387;-96
2021/07/11 03:58:02;;;;;;;7.80;5.47;;;24.70;72.70;;;;;;4922762;29;20035;-96
2021/07/11 04:00:28;;;;;;;5.85;5.35;;;24.70;72.20;;;;;;4941928;29;20035;-96
2021/07/11 04:02:55;;;;;;;6.57;5.97;;;24.80;72.10;;;;;;4922629;29;20387;-96
2021/07/11 04:05:25;;;;;;;6.07;5.47;;;24.90;72.00;;;;;;4927249;29;20039;-95
2021/07/11 04:07:53;;;;;;;6.35;5.70;;;24.90;72.00;;;;;;4923891;29;20031;-96
2021/07/11 04:10:24;;;;;;;7.68;6.88;;;25.00;71.50;;;;;;4931679;29;20032;-96
2021/07/11 04:12:50;;;;;;;6.60;5.93;;;25.00;71.40;;;;;;4932669;29;20051;-96
2021/07/11 04:15:16;;;;;;;6.65;6.05;;;25.00;71.70;;;;;;4932191;29;20028;-96
2021/07/11 04:17:46;;;;;;;8.40;6.57;;;25.10;72.00;;;;;;4928774;29;20779;-96
2021/07/11 04:20:14;;;;;;;6.15;5.47;;;25.20;72.40;;;;;;4925745;29;20127;-96
2021/07/11 04:22:41;;;;;;;7.10;6.40;;;25.30;72.20;;;;;;4925692;29;20476;-95
2021/07/11 04:25:11;;;;;;;7.07;6.38;;;25.40;72.30;;;;;;4924865;29;20383;-96
2021/07/11 04:27:38;;;;;;;6.53;5.93;;;25.50;72.20;;;;;;4926605;29;20035;-95
2021/07/11 04:30:06;;;;;;;6.50;5.90;;;25.50;71.80;;;;;;4928751;29;20024;-96
2021/07/11 04:32:36;;;;;;;7.05;6.30;;;25.60;71.60;;;;;;4938003;29;20024;-96
2021/07/11 04:35:04;;;;;;;6.78;6.00;;;25.70;70.90;;;;;;4946348;29;20016;-94
2021/07/11 04:37:43;;;;;;;7.85;7.15;;;25.80;70.50;;;;;;4945659;29;20016;-96
2021/07/11 04:42:46;;;;;;;7.38;6.68;;;25.90;68.90;;;;;;4984343;23;20039;-94
2021/07/11 04:45:12;;;;;;;7.07;6.28;;;25.90;68.50;;;;;;4985512;23;20066;-95
2021/07/11 04:47:41;;;;;;;9.43;6.18;;;25.90;68.20;;;;;;4975855;29;20019;-96
2021/07/11 04:50:08;;;;;;;6.90;6.20;;;26.00;68.30;;;;;;4953279;29;20259;-96
2021/07/11 04:52:33;;;;;;;6.68;5.97;;;26.10;68.40;;;;;;4973392;29;20023;-95
2021/07/11 04:54:59;;;;;;;7.28;6.57;;;26.20;68.50;;;;;;4948552;29;20042;-96
2021/07/11 04:57:25;;;;;;;8.30;7.53;;;26.20;68.80;;;;;;4948299;29;20027;-96
2021/07/11 04:59:54;;;;;;;7.93;7.22;;;26.30;69.20;;;;;;4950346;29;20098;-96
2021/07/11 05:02:20;;;;;;;7.80;7.10;;;26.30;68.80;;;;;;4971546;29;20031;-96
2021/07/11 05:04:45;;;;;;;7.93;7.18;;;26.30;69.20;;;;;;4957539;28;20081;-96
2021/07/11 05:07:11;;;;;;;8.07;7.28;;;26.20;69.10;;;;;;4948981;29;20105;-96
2021/07/11 05:09:37;;;;;;;7.38;6.70;;;26.20;69.50;;;;;;4945479;29;20039;-96
2021/07/11 05:12:03;;;;;;;6.88;6.18;;;26.30;69.60;;;;;;4947099;29;20463;-96
2021/07/11 05:14:29;;;;;;;8.25;7.45;;;26.30;69.80;;;;;;4947218;29;20039;-96
2021/07/11 05:16:55;;;;;;;9.65;8.10;;;26.40;70.20;;;;;;4949287;29;20070;-96
2021/07/11 05:19:21;;;;;;;8.10;7.30;;;26.40;70.40;;;;;;4945120;29;20059;-96
2021/07/11 05:21:47;;;;;;;7.88;7.10;;;26.40;70.00;;;;;;4949297;29;20023;-96
2021/07/11 05:24:15;;;;;;;7.05;6.35;;;26.50;69.30;;;;;;4958493;29;20012;-96
2021/07/11 05:26:41;;;;;;;8.52;7.35;;;26.50;68.10;;;;;;4960255;29;20109;-96
2021/07/11 05:29:07;;;;;;;8.40;7.50;;;26.50;67.40;;;;;;4951809;29;20035;-96
2021/07/11 05:31:32;;;;;;;7.63;6.97;;;26.50;67.40;;;;;;4970478;29;20079;-96
2021/07/11 05:33:58;;;;;;;7.03;6.32;;;26.50;67.70;;;;;;4945549;29;20028;-96
2021/07/11 05:36:24;;;;;;;6.40;5.80;;;26.60;67.50;;;;;;4954485;28;20039;-95
2021/07/11 05:38:50;;;;;;;7.95;6.20;;;26.60;65.50;;;;;;4953987;28;20027;-96
2021/07/11 05:41:16;;;;;;;6.32;5.72;;;26.70;64.70;;;;;;4969573;29;20023;-96
2021/07/11 05:43:43;;;;;;;6.88;6.22;;;26.70;64.20;;;;;;4956895;28;20043;-96
2021/07/11 05:46:09;;;;;;;7.05;6.35;;;26.70;64.60;;;;;;4955140;29;20046;-96
2021/07/11 05:48:35;;;;;;;6.00;5.40;;;26.70;65.40;;;;;;4953063;29;20031;-96
2021/07/11 05:51:01;;;;;;;6.65;6.05;;;26.80;65.60;;;;;;4953738;29;20038;-96
2021/07/11 05:53:27;;;;;;;8.63;7.32;;;26.90;65.40;;;;;;4956465;28;20035;-96
2021/07/11 05:55:55;;;;;;;8.18;7.20;;;26.90;64.30;;;;;;4957455;29;20175;-96
2021/07/11 05:58:23;;;;;;;8.73;7.55;;;26.90;63.70;;;;;;5036540;23;20720;-96
2021/07/11 06:00:50;;;;;;;6.93;6.28;;;26.80;64.50;;;;;;4954517;29;20043;-96
2021/07/11 06:03:16;;;;;;;7.57;6.80;;;26.70;65.20;;;;;;4969959;29;20107;-96
2021/07/11 06:05:43;;;;;;;6.82;6.05;;;26.70;65.80;;;;;;4952095;29;20023;-96
2021/07/11 06:08:14;;;;;;;7.38;6.68;;;26.80;65.90;;;;;;4958491;29;20031;-96
2021/07/11 06:10:43;;;;;;;7.03;6.35;;;26.90;65.60;;;;;;4960914;29;20031;-96
2021/07/11 06:13:09;;;;;;;7.30;6.60;;;26.90;65.70;;;;;;4958706;29;20095;-96
2021/07/11 06:15:35;;;;;;;8.13;7.32;;;27.00;65.70;;;;;;5206321;23;20026;-96
2021/07/11 06:20:48;;;;;;;8.68;6.20;;;27.00;64.80;;;;;;5044680;23;20059;-96
2021/07/11 06:23:14;;;;;;;7.45;6.85;;;27.10;65.10;;;;;;5134711;23;20067;-94
2021/07/11 06:25:40;;;;;;;7.57;6.88;;;27.20;65.10;;;;;;4977579;28;20046;-96
2021/07/11 06:28:06;;;;;;;6.63;6.03;;;27.20;64.20;;;;;;5060343;23;20059;-95
2021/07/11 06:30:40;;;;;;;8.05;7.35;;;27.30;64.30;;;;;;4957050;29;20031;-96
2021/07/11 06:33:06;;;;;;;7.22;6.60;;;27.40;64.00;;;;;;4948839;29;20038;-96
2021/07/11 06:35:37;;;;;;;9.25;7.82;;;27.50;64.10;;;;;;4951229;29;20027;-95
2021/07/11 06:38:03;;;;;;;8.15;7.43;;;27.60;63.60;;;;;;4956088;29;20086;-95
2021/07/11 06:40:29;;;;;;;7.35;6.75;;;27.60;63.80;;;;;;4961541;29;20035;-95
2021/07/11 06:42:59;;;;;;;7.97;7.22;;;27.70;63.50;;;;;;4962118;29;20046;-96
2021/07/11 06:45:25;;;;;;;8.38;7.05;;;27.70;63.30;;;;;;4963071;28;20034;-93
2021/07/11 06:53:29;;;;;;;7.93;6.80;;;27.90;62.10;;;;;;5237705;23;20113;-96
2021/07/11 06:55:59;;;;;;;8.07;6.22;;;28.00;61.90;;;;;;4949560;29;20020;-96
2021/07/11 07:03:38;;;;;;;7.57;6.82;;;28.30;61.50;;;;;;5032528;23;20059;-96
2021/07/11 07:06:07;;;;;;;8.90;6.45;;;28.30;61.40;;;;;;4948818;29;20099;-96
2021/07/11 07:08:36;;;;;;;6.45;5.78;;;28.40;61.30;;;;;;4954869;29;20090;-96
2021/07/11 07:11:02;;;;;;;7.05;6.38;;;28.60;60.90;;;;;;4974138;28;20038;-96
2021/07/11 07:13:28;;;;;;;7.53;6.82;;;28.70;60.60;;;;;;5215345;23;20347;-94
2021/07/11 07:15:56;;;;;;;6.95;5.78;;;28.80;60.30;;;;;;4974999;28;20031;-96
2021/07/11 07:20:58;;;;;;;7.07;5.85;;;29.00;59.70;;;;;;5004684;23;20035;-93
2021/07/11 07:23:26;;;;;;;6.88;6.18;;;29.00;60.00;;;;;;4958686;29;20043;-95
2021/07/11 07:25:54;;;;;;;8.70;5.68;;;29.10;59.30;;;;;;4957860;29;20055;-95
2021/07/11 07:28:20;;;;;;;5.80;4.78;;;29.20;59.40;;;;;;4959411;29;20072;-94
2021/07/11 07:30:46;;;;;;;5.53;5.00;;;29.40;59.10;;;;;;4960684;28;20035;-95
2021/07/11 07:33:12;;;;;;;6.45;4.97;;;29.60;58.50;;;;;;4959458;29;20029;-96
2021/07/11 07:35:38;;;;;;;5.68;5.18;;;29.80;58.30;;;;;;4958330;29;20066;-96
2021/07/11 07:38:05;;;;;;;6.25;5.70;;;29.90;58.10;;;;;;4957762;28;20059;-96
2021/07/11 07:40:34;;;;;;;8.13;7.10;;;30.00;57.20;;;;;;5015134;23;20109;-92
2021/07/11 07:43:03;;;;;;;7.63;6.93;;;30.00;56.50;;;;;;4954330;29;20540;-96
2021/07/11 07:45:29;;;;;;;6.95;6.28;;;30.00;56.70;;;;;;5045363;23;20050;-96
2021/07/11 07:47:58;;;;;;;6.40;5.80;;;30.00;57.00;;;;;;4970485;28;20051;-96
2021/07/11 07:50:24;;;;;;;6.53;5.93;;;30.10;57.00;;;;;;5085963;23;20039;-96
2021/07/11 07:52:55;;;;;;;6.65;6.05;;;30.10;57.00;;;;;;4967768;23;20053;-96
2021/07/11 07:55:21;;;;;;;7.95;5.30;;;30.10;56.50;;;;;;5332396;23;20030;-96
2021/07/11 08:00:24;;;;;;;5.65;5.15;;;30.20;56.40;;;;;;5191554;23;20066;-95
2021/07/11 08:02:52;;;;;;;6.30;5.40;;;30.30;56.20;;;;;;4974493;28;20042;-94
2021/07/11 08:05:18;;;;;;;5.65;5.15;;;30.50;56.00;;;;;;4960185;28;20027;-96
2021/07/11 08:07:49;;;;;;;6.10;5.47;;;30.60;55.70;;;;;;4960752;28;20033;-96
2021/07/11 08:15:54;;;;;;;6.40;5.90;;;30.80;54.10;;;;;;5131628;23;20113;-96
2021/07/11 08:18:20;;;;;;;;;;;30.80;54.00;;;;;;4957746;29;20035;-96
2021/07/11 08:20:45;;;;;;;6.18;5.38;;;30.80;54.10;;;;;;5004616;23;20278;-95
2021/07/11 08:23:11;;;;;;;5.80;5.30;;;30.80;53.70;;;;;;5054572;23;20082;-96
2021/07/11 08:25:40;;;;;;;5.38;4.88;;;30.80;53.50;;;;;;5252410;23;20060;-93
2021/07/11 08:28:12;;;;;;;5.63;5.13;;;30.90;53.80;;;;;;4958571;28;20032;-95
2021/07/11 08:30:37;;;;;;;5.40;4.90;;;31.10;52.60;;;;;;5085021;23;20115;-96
2021/07/11 08:33:11;;;;;;;8.20;5.70;;;31.10;53.00;;;;;;5279402;23;20049;31
2021/07/11 08:35:44;;;;;;;7.70;5.07;;;31.10;50.70;;;;;;5103956;23;20055;-96
2021/07/11 08:38:10;;;;;;;4.70;4.30;;;31.00;51.70;;;;;;5096742;23;20049;-96
2021/07/11 08:40:36;;;;;;;6.40;5.82;;;31.00;52.10;;;;;;4958795;29;20039;-96
2021/07/11 08:43:05;;;;;;;4.95;4.55;;;31.00;52.00;;;;;;4959919;29;20035;-94
2021/07/11 08:45:34;;;;;;;6.65;5.50;;;31.10;52.00;;;;;;4959350;29;20034;-96
2021/07/11 08:48:00;;;;;;;4.97;4.57;;;31.20;51.30;;;;;;4959846;29;20038;-96
2021/07/11 08:58:27;;;;;;;6.07;5.22;;;31.40;50.20;;;;;;5895855;23;20136;-95
2021/07/11 09:05:55;;;;;;;4.90;4.50;;;31.80;50.30;;;;;;5442203;23;20047;-95
2021/07/11 09:10:59;;;;;;;5.05;4.30;;;32.00;49.30;;;;;;5409941;23;20017;-95
2021/07/11 09:18:51;;;;;;;4.93;4.53;;;32.40;48.10;;;;;;5030995;23;20106;-95
2021/07/11 09:21:19;;;;;;;5.05;4.50;;;32.40;47.30;;;;;;4955054;29;20063;-96
2021/07/11 09:23:45;;;;;;;4.90;4.50;;;32.40;46.80;;;;;;5031253;23;20059;-95
2021/07/11 09:28:51;;;;;;;4.97;4.57;;;32.40;47.00;;;;;;5454321;23;20444;-94
2021/07/11 09:33:55;;;;;;;4.72;4.32;;;32.70;46.80;;;;;;5095240;23;20062;-95
2021/07/11 09:36:25;;;;;;;4.90;4.50;;;32.80;46.70;;;;;;4959529;28;20031;-96
2021/07/11 09:38:52;;;;;;;4.93;4.40;;;32.80;46.20;;;;;;4954702;29;20038;-96
2021/07/11 09:41:25;;;;;;;5.15;4.68;;;32.90;45.30;;;;;;4955178;28;20356;-96
2021/07/11 09:43:52;;;;;;;5.53;5.00;;;32.80;44.10;;;;;;4946001;29;20035;-96
2021/07/11 09:46:19;;;;;;;5.82;5.00;;;32.60;44.50;;;;;;4953938;29;20043;-96
2021/07/11 09:48:47;;;;;;;5.38;4.90;;;32.60;44.20;;;;;;4946028;29;20170;-96
2021/07/11 09:51:19;;;;;;;6.15;4.32;;;32.50;44.20;;;;;;4947460;29;20034;-96
2021/07/11 09:53:45;;;;;;;5.15;4.65;;;32.50;44.00;;;;;;4961884;29;20035;-96
2021/07/11 09:56:39;;;;;;;5.38;4.90;;;32.50;44.50;;;;;;4945744;29;20035;-95
2021/07/11 09:59:07;;;;;;;5.30;4.80;;;32.40;43.60;;;;;;4944401;29;20027;-96
2021/07/11 10:01:36;;;;;;;5.28;4.70;;;32.40;44.40;;;;;;4945024;29;20037;-96
2021/07/11 10:04:03;;;;;;;5.07;4.68;;;32.50;43.80;;;;;;4948033;29;20048;-95
2021/07/11 10:06:33;;;;;;;5.15;4.65;;;32.50;43.80;;;;;;4927195;29;20042;-96
2021/07/11 10:08:59;;;;;;;4.82;4.40;;;32.50;44.20;;;;;;4928840;29;20032;-96
2021/07/11 10:11:35;;;;;;;5.07;4.68;;;32.60;43.80;;;;;;4927776;29;20028;-96
2021/07/11 10:14:01;;;;;;;4.65;4.28;;;32.60;43.40;;;;;;4946637;29;20066;-96
2021/07/11 10:16:28;;;;;;;5.70;5.20;;;32.60;43.40;;;;;;4934725;29;20055;-95
2021/07/11 10:18:59;;;;;;;4.40;4.05;;;32.60;42.80;;;;;;4957071;29;20023;-96
2021/07/11 10:21:33;;;;;;;5.50;5.00;;;32.60;43.20;;;;;;4950814;29;20103;-96
2021/07/11 10:23:59;;;;;;;4.97;4.57;;;32.60;43.00;;;;;;4969721;23;20059;-96
2021/07/11 10:26:39;;;;;;;5.70;5.03;;;32.50;43.10;;;;;;4952835;29;20031;-96
2021/07/11 10:29:14;;;;;;;5.20;4.70;;;32.50;43.10;;;;;;4963205;28;20027;-95
2021/07/11 10:31:46;;;;;;;5.43;4.93;;;32.60;43.50;;;;;;4940168;29;20027;-95
2021/07/11 10:34:12;;;;;;;5.22;4.82;;;32.80;43.10;;;;;;4937587;29;20032;-96
2021/07/11 10:36:39;;;;;;;9.50;4.60;;;32.80;42.90;;;;;;4938398;29;20043;-96
2021/07/11 10:39:08;;;;;;;5.20;4.70;;;32.80;43.20;;;;;;4938524;29;20030;-96
2021/07/11 10:41:45;;;;;;;5.40;4.90;;;32.80;43.20;;;;;;4935296;29;20076;-95
2021/07/11 10:44:16;;;;;;;5.38;4.88;;;32.90;42.90;;;;;;4940352;29;20055;-95
2021/07/11 10:46:51;;;;;;;4.50;4.20;;;32.90;43.10;;;;;;4938705;29;20491;-95
2021/07/11 10:49:20;;;;;;;5.45;5.00;;;32.90;42.60;;;;;;4944442;29;20015;-96
2021/07/11 10:51:54;;;;;;;4.70;4.30;;;32.90;43.00;;;;;;4962165;29;20032;-96
2021/07/11 10:54:32;;;;;;;4.80;4.40;;;32.90;43.00;;;;;;4928924;29;20032;-96
2021/07/11 10:57:07;;;;;;;6.00;5.40;;;33.00;42.80;;;;;;4935393;29;20036;-94
2021/07/11 10:59:37;;;;;;;5.30;4.90;;;33.00;42.50;;;;;;4969799;28;20055;-93
2021/07/11 11:02:07;;;;;;;6.18;5.68;;;33.00;42.80;;;;;;4960225;29;20031;-93
2021/07/11 11:04:32;;;;;;;5.30;4.90;;;33.10;42.50;;;;;;5044107;23;20058;-96
2021/07/11 11:07:15;;;;;;;4.97;4.53;;;33.20;42.40;;;;;;4954727;29;20471;-95
2021/07/11 11:09:47;;;;;;;5.40;4.90;;;33.30;42.20;;;;;;4935196;29;20080;-96
2021/07/11 11:12:28;;;;;;;5.82;5.30;;;33.20;42.00;;;;;;4934282;29;20043;-95
2021/07/11 11:15:13;;;;;;;6.05;5.20;;;33.20;42.00;;;;;;4952244;29;20084;-95
2021/07/11 11:17:39;;;;;;;5.50;5.10;;;33.10;41.90;;;;;;4940003;29;20038;-95
2021/07/11 11:23:29;;;;;;;6.15;5.00;;;33.10;42.30;;;;;;4986521;23;19930;-96
2021/07/11 11:25:56;;;;;;;5.25;4.72;;;33.30;42.20;;;;;;4944705;29;20046;-93
2021/07/11 11:28:33;;;;;;;5.10;4.70;;;33.40;42.30;;;;;;4933763;29;20062;-94
2021/07/11 11:31:44;;;;;;;5.53;4.85;;;33.40;41.80;;;;;;4963893;29;20027;-96
2021/07/11 11:34:12;;;;;;;5.60;5.10;;;33.40;41.70;;;;;;4933078;29;20035;-95
2021/07/11 11:37:32;;;;;;;;;;;;;;;;;;;;;
2021/07/11 11:40:13;;;;;;;5.93;5.32;;;33.40;40.40;;;;;;4933245;29;20054;-95
2021/07/11 11:43:03;;;;;;;6.10;5.60;;;33.40;41.30;;;;;;4938523;29;20043;-95
2021/07/11 11:45:33;;;;;;;6.13;5.63;;;33.30;40.70;;;;;;4948708;28;20063;-96
2021/07/11 11:48:07;;;;;;;5.75;5.30;;;33.30;41.60;;;;;;4935803;29;20043;-96
2021/07/11 11:50:44;;;;;;;5.80;5.30;;;33.30;42.00;;;;;;4951474;29;20046;-95
2021/07/11 11:53:15;;;;;;;4.90;4.50;;;33.30;42.10;;;;;;4932114;29;20103;-94
2021/07/11 11:56:05;;;;;;;5.88;5.38;;;33.40;42.10;;;;;;4944875;29;20032;-96
2021/07/11 11:58:34;;;;;;;6.10;5.40;;;33.60;41.30;;;;;;4929773;29;20044;-95
2021/07/11 12:01:06;;;;;;;5.20;4.80;;;33.60;41.60;;;;;;4922186;29;20044;-95
2021/07/11 12:03:37;;;;;;;5.70;5.22;;;33.70;41.80;;;;;;4916923;29;20050;-96
2021/07/11 12:06:13;;;;;;;6.05;5.45;;;33.80;41.70;;;;;;4950261;29;20051;-96
2021/07/11 12:08:47;;;;;;;6.50;5.90;;;33.90;40.90;;;;;;4941729;29;20032;-95
2021/07/11 12:11:14;;;;;;;6.15;5.55;;;33.90;41.30;;;;;;4922196;29;20032;-95
2021/07/11 12:13:42;;;;;;;5.90;5.38;;;34.00;41.40;;;;;;4910976;29;20729;-95
2021/07/11 12:16:27;;;;;;;5.80;5.30;;;34.10;41.10;;;;;;4928370;29;20039;-96
2021/07/11 12:21:30;;;;;;;6.70;5.20;;;34.50;41.10;;;;;;4989707;23;20063;-94
2021/07/11 12:24:22;;;;;;;5.05;4.65;;;34.90;41.50;;;;;;4918383;29;20036;-94
2021/07/11 12:26:56;;;;;;;5.93;5.32;;;35.40;41.80;;;;;;4933322;29;20079;-92
2021/07/11 12:29:32;;;;;;;6.15;5.60;;;36.00;41.00;;;;;;4933648;29;20117;-92
2021/07/11 12:32:03;;;;;;;5.68;5.18;;;36.30;40.40;;;;;;4936994;29;20035;-92
2021/07/11 12:34:29;;;;;;;5.13;4.72;;;36.60;40.40;;;;;;4938846;29;20468;-92
2021/07/11 12:37:00;;;;;;;6.50;5.90;;;37.00;40.30;;;;;;4933755;29;20028;-91
2021/07/11 12:39:27;;;;;;;5.22;4.82;;;37.30;40.20;;;;;;4925465;29;20032;-90
2021/07/11 12:41:54;;;;;;;6.60;6.10;;;37.40;39.50;;;;;;4931374;29;20036;-92
2021/07/11 12:44:40;;;;;;;5.82;5.32;;;37.70;38.60;;;;;;4948307;29;20042;-91
2021/07/11 12:47:15;;;;;;;4.95;4.45;;;38.00;38.50;;;;;;4921538;29;20033;-90
2021/07/11 12:49:56;;;;;;;5.50;5.10;;;38.20;38.90;;;;;;4955042;28;20119;-92
2021/07/11 12:52:22;;;;;;;5.73;5.23;;;38.60;38.00;;;;;;4922230;29;20093;-92
2021/07/11 12:54:50;;;;;;;5.13;4.72;;;38.90;38.10;;;;;;4929942;29;20131;-92
2021/07/11 12:57:16;;;;;;;5.90;5.25;;;39.20;38.00;;;;;;4942307;29;20089;-92
2021/07/11 12:59:48;;;;;;;5.10;4.70;;;39.40;37.30;;;;;;4935718;29;20055;-92
2021/07/11 13:02:27;;;;;;;4.97;4.57;;;39.50;37.20;;;;;;4962078;29;20027;-93
2021/07/11 13:05:05;;;;;;;6.00;5.47;;;39.70;36.60;;;;;;4953114;29;20031;-92
2021/07/11 13:07:32;;;;;;;4.93;4.53;;;39.90;36.10;;;;;;4937441;29;20566;-92
2021/07/11 13:10:00;;;;;;;6.15;5.55;;;39.80;36.10;;;;;;4947886;29;20036;-93
2021/07/11 13:12:27;;;;;;;5.38;4.97;;;39.80;35.60;;;;;;4965654;29;20054;-92
2021/07/11 13:37:31;;;;;;;5.32;4.93;;;40.80;35.10;;;;;;4932812;29;20063;-96
2021/07/11 13:44:04;;;;;;;5.40;4.90;;;41.30;32.70;;;;;;4915999;29;20103;-95
2021/07/11 13:46:30;;;;;;;5.72;5.05;;;41.30;33.90;;;;;;4885025;29;20047;-92
2021/07/11 13:49:06;;;;;;;5.13;4.72;;;41.00;33.80;;;;;;4897722;29;20060;-95
2021/07/11 13:52:12;;;;;;;5.05;4.55;;;40.70;33.90;;;;;;4899616;29;20028;-96
2021/07/11 13:54:41;;;;;;;5.57;5.07;;;40.50;34.00;;;;;;4906864;29;20044;-94
2021/07/11 13:57:36;;;;;;;5.32;4.93;;;40.40;34.20;;;;;;4869282;29;20085;-93
2021/07/11 14:00:13;;;;;;;5.15;4.72;;;40.30;34.00;;;;;;4901263;29;20068;-94
2021/07/11 14:02:44;;;;;;;5.13;4.72;;;40.20;34.40;;;;;;4880805;29;20064;-95
2021/07/11 14:05:10;;;;;;;5.65;5.18;;;40.40;34.60;;;;;;4885248;29;20092;-96
2021/07/11 14:07:45;;;;;;;4.95;4.55;;;40.70;34.20;;;;;;4900937;29;20033;-95
2021/07/11 14:10:14;;;;;;;6.07;5.53;;;40.80;34.00;;;;;;4885327;29;20437;-96
2021/07/11 14:12:44;;;;;;;6.18;5.57;;;40.90;33.90;;;;;;4885316;29;20044;-96
2021/07/11 14:15:15;;;;;;;5.28;4.78;;;41.00;33.80;;;;;;4909972;29;20048;-96
2021/07/11 14:17:41;;;;;;;;;;;41.20;33.70;;;;;;4884205;29;20028;-96
2021/07/11 14:20:11;;;;;;;5.13;4.63;;;41.30;32.80;;;;;;4889445;29;19917;-95
2021/07/11 14:22:39;;;;;;;5.30;4.80;;;41.20;33.70;;;;;;4903425;29;20034;-96
2021/07/11 14:25:06;;;;;;;6.53;5.85;;;41.30;33.90;;;;;;4908976;29;20139;-96
2021/07/11 14:27:33;;;;;;;9.38;5.97;;;41.50;33.40;;;;;;4905712;29;20064;-96